Time;durP1;ratioP1;P1;durP2;ratioP2;P2;SDS_P1;SDS_P2;PMS_P1;PMS_P2;Temp;Humidity;BMP_temperature;BMP_pressure;BME280_temperature;BME280_humidity;BME280_pressure;Samples;Min_cycle;Max_cycle;Signal;HPM_P1;HPM_P2
2021/09/21 00:01:34;;;;;;;908.58;583.95;;;;;;;;;;5005365;28;20073;-78
2021/09/21 00:04:00;;;;;;;903.95;576.25;;;;;;;;;;5008919;28;20433;-78
2021/09/21 00:06:26;;;;;;;920.28;627.05;;;;;;;;;;5005405;28;20034;-78
2021/09/21 00:08:52;;;;;;;917.45;617.88;;;;;;;;;;5001774;28;20058;-79
2021/09/21 00:11:18;;;;;;;917.78;622.95;;;;;;;;;;5006875;28;20419;-79
2021/09/21 00:13:44;;;;;;;916.70;607.10;;;;;;;;;;5000924;28;20041;-79
2021/09/21 00:16:10;;;;;;;927.97;651.60;;;;;;;;;;5010713;28;20148;-79
2021/09/21 00:18:36;;;;;;;931.65;654.15;;;;;;;;;;5007342;28;20033;-79
2021/09/21 00:21:02;;;;;;;917.58;612.35;;;;;;;;;;5010785;28;20044;-79
2021/09/21 00:23:29;;;;;;;923.15;635.15;;;;;;;;;;5008031;28;20037;-78
2021/09/21 00:25:55;;;;;;;926.35;647.00;;;;;;;;;;5003661;28;20038;-78
2021/09/21 00:28:21;;;;;;;920.10;626.58;;;;;;;;;;4997620;28;20080;-77
2021/09/21 00:30:49;;;;;;;906.30;574.35;;;;;;;;;;5001604;28;20037;-79
2021/09/21 00:33:18;;;;;;;921.88;626.00;;;;;;;;;;5006766;28;20029;-78
2021/09/21 00:35:44;;;;;;;924.22;633.08;;;;;;;;;;5007000;28;20088;-78
2021/09/21 00:38:10;;;;;;;922.63;629.53;;;;;;;;;;5002105;28;20034;-78
2021/09/21 00:40:36;;;;;;;925.20;638.17;;;;;;;;;;5004072;28;20040;-77
2021/09/21 00:43:03;;;;;;;921.65;633.25;;;;;;;;;;5004497;28;20029;-79
2021/09/21 00:45:29;;;;;;;922.50;629.63;;;;;;;;;;5000205;28;20534;-78
2021/09/21 00:47:55;;;;;;;917.05;605.47;;;;;;;;;;5017216;28;20038;-79
2021/09/21 00:50:23;;;;;;;926.53;633.42;;;;;;;;;;5006173;28;20056;-78
2021/09/21 00:52:49;;;;;;;918.85;605.35;;;;;;;;;;5007213;28;20034;-78
2021/09/21 00:55:17;;;;;;;911.50;583.90;;;;;;;;;;5011516;28;20030;-78
2021/09/21 00:57:43;;;;;;;903.90;559.47;;;;;;;;;;5006096;28;20049;-79
2021/09/21 01:00:10;;;;;;;904.83;562.92;;;;;;;;;;5000174;28;20030;-78
2021/09/21 01:02:36;;;;;;;899.05;536.85;;;;;;;;;;5006214;28;20030;-78
2021/09/21 01:05:03;;;;;;;910.90;578.53;;;;;;;;;;5006553;28;20037;-78
2021/09/21 01:07:29;;;;;;;914.40;596.90;;;;;;;;;;4994943;28;20061;-79
2021/09/21 01:10:03;;;;;;;918.08;610.08;;;;;;;;;;4998695;28;20069;-78
2021/09/21 01:12:29;;;;;;;916.05;600.13;;;;;;;;;;4996622;28;20695;-78
2021/09/21 01:14:55;;;;;;;924.17;631.17;;;;;;;;;;5006763;28;20513;-80
2021/09/21 01:17:21;;;;;;;903.17;555.22;;;;;;;;;;5007481;28;20038;-78
2021/09/21 01:19:47;;;;;;;902.15;554.95;;;;;;;;;;5012678;28;20125;-78
2021/09/21 01:22:13;;;;;;;895.33;534.53;;;;;;;;;;4997553;28;20039;-79
2021/09/21 01:24:39;;;;;;;896.83;536.58;;;;;;;;;;5004028;28;20644;-79
2021/09/21 01:27:05;;;;;;;900.70;553.50;;;;;;;;;;5000659;28;20034;-79
2021/09/21 01:29:31;;;;;;;903.65;569.40;;;;;;;;;;5003150;28;20510;-79
2021/09/21 01:31:57;;;;;;;901.13;552.85;;;;;;;;;;5008916;28;20448;-79
2021/09/21 01:34:25;;;;;;;902.22;560.47;;;;;;;;;;5004762;28;20050;-79
2021/09/21 01:36:51;;;;;;;907.35;575.88;;;;;;;;;;5001571;28;20041;-78
2021/09/21 01:39:17;;;;;;;911.10;592.35;;;;;;;;;;5004033;28;20026;-78
2021/09/21 01:41:43;;;;;;;906.58;579.28;;;;;;;;;;5005346;28;20481;-78
2021/09/21 01:44:09;;;;;;;914.05;603.38;;;;;;;;;;5005576;28;20330;-79
2021/09/21 01:46:36;;;;;;;903.47;560.83;;;;;;;;;;5001231;28;20041;-79
2021/09/21 01:49:02;;;;;;;911.13;599.88;;;;;;;;;;5003172;28;20478;-79
2021/09/21 01:51:34;;;;;;;899.88;556.15;;;;;;;;;;5002789;28;20091;-79
2021/09/21 01:54:21;;;;;;;912.05;604.20;;;;;;;;;;4998222;28;20024;-79
2021/09/21 01:59:32;;;;;;;906.70;579.65;;;;;;;;;;4996079;28;20053;-79
2021/09/21 02:01:58;;;;;;;909.95;597.25;;;;;;;;;;5002061;28;20037;-78
2021/09/21 02:04:24;;;;;;;913.92;610.47;;;;;;;;;;4998584;28;20502;-78
2021/09/21 02:06:52;;;;;;;912.97;599.33;;;;;;;;;;5007252;28;20617;-78
2021/09/21 02:09:18;;;;;;;915.50;604.47;;;;;;;;;;4999360;28;20024;-78
2021/09/21 02:11:44;;;;;;;913.83;608.50;;;;;;;;;;5007519;28;20101;-78
2021/09/21 02:14:13;;;;;;;913.08;599.95;;;;;;;;;;5003910;28;20511;-78
2021/09/21 02:16:39;;;;;;;911.35;601.53;;;;;;;;;;5006850;28;20457;-78
2021/09/21 02:19:05;;;;;;;908.20;587.17;;;;;;;;;;5005113;28;20038;-78
2021/09/21 02:21:31;;;;;;;904.13;583.67;;;;;;;;;;5006583;28;20025;-77
2021/09/21 02:23:58;;;;;;;905.85;579.95;;;;;;;;;;5005281;28;20084;-78
2021/09/21 02:26:24;;;;;;;902.13;570.50;;;;;;;;;;4995788;28;20030;-78
2021/09/21 02:28:51;;;;;;;921.45;631.67;;;;;;;;;;4996419;28;20026;-78
2021/09/21 02:31:16;;;;;;;920.15;634.10;;;;;;;;;;5001494;28;20026;-78
2021/09/21 02:33:43;;;;;;;916.88;617.17;;;;;;;;;;5001617;28;20025;-78
2021/09/21 02:36:09;;;;;;;921.35;635.03;;;;;;;;;;5005577;28;20034;-78
2021/09/21 02:38:35;;;;;;;916.42;620.50;;;;;;;;;;4997958;28;20493;-77
2021/09/21 02:41:02;;;;;;;911.20;600.45;;;;;;;;;;5001150;28;20038;-78
2021/09/21 02:43:28;;;;;;;927.75;658.65;;;;;;;;;;5004907;28;20026;-78
2021/09/21 02:45:54;;;;;;;926.03;651.85;;;;;;;;;;5001027;28;20234;-78
2021/09/21 02:48:20;;;;;;;904.10;577.72;;;;;;;;;;5001975;28;20026;-78
2021/09/21 02:50:46;;;;;;;911.75;608.33;;;;;;;;;;5004072;28;20034;-78
2021/09/21 02:53:12;;;;;;;917.35;622.08;;;;;;;;;;5005791;28;20032;-77
2021/09/21 02:55:38;;;;;;;910.60;599.63;;;;;;;;;;5005852;28;20496;-78
2021/09/21 02:58:04;;;;;;;923.95;642.58;;;;;;;;;;5001109;28;20034;-77
2021/09/21 03:00:30;;;;;;;899.65;562.90;;;;;;;;;;5000906;28;20145;-77
2021/09/21 03:03:01;;;;;;;909.03;595.40;;;;;;;;;;5006246;28;20036;-78
2021/09/21 03:05:30;;;;;;;920.08;635.55;;;;;;;;;;5004079;28;20034;-78
2021/09/21 03:08:01;;;;;;;909.20;598.58;;;;;;;;;;4996984;28;20022;-78
2021/09/21 03:10:37;;;;;;;917.15;622.15;;;;;;;;;;4995486;28;20042;-78
2021/09/21 03:18:26;;;;;;;921.17;645.83;;;;;;;;;;5004528;28;20118;-78
2021/09/21 03:20:52;;;;;;;928.92;662.50;;;;;;;;;;4998209;28;20592;-78
2021/09/21 03:23:18;;;;;;;938.70;698.25;;;;;;;;;;4994565;28;20096;-78
2021/09/21 03:25:44;;;;;;;934.63;687.72;;;;;;;;;;5004929;28;20029;-78
2021/09/21 03:28:10;;;;;;;931.35;679.72;;;;;;;;;;4992065;28;20029;-78
2021/09/21 03:30:36;;;;;;;929.35;675.55;;;;;;;;;;5003145;28;20049;-77
2021/09/21 03:33:02;;;;;;;935.65;690.28;;;;;;;;;;5003464;28;20492;-77
2021/09/21 03:35:28;;;;;;;933.28;688.13;;;;;;;;;;5005421;28;20025;-78
2021/09/21 03:37:54;;;;;;;944.65;715.60;;;;;;;;;;4999115;28;20122;-78
2021/09/21 03:40:20;;;;;;;936.40;698.72;;;;;;;;;;5005750;28;20128;-77
2021/09/21 03:42:46;;;;;;;935.83;691.50;;;;;;;;;;5003167;28;20034;-78
2021/09/21 03:45:12;;;;;;;926.85;666.63;;;;;;;;;;5004867;28;20040;-78
2021/09/21 03:47:38;;;;;;;920.72;656.38;;;;;;;;;;5004119;28;20390;-78
2021/09/21 03:50:04;;;;;;;937.67;698.85;;;;;;;;;;5002730;28;20042;-78
2021/09/21 03:52:30;;;;;;;936.08;696.15;;;;;;;;;;5004575;28;20113;-77
2021/09/21 03:54:56;;;;;;;937.78;698.13;;;;;;;;;;4998080;28;20028;-77
2021/09/21 03:57:22;;;;;;;934.72;693.78;;;;;;;;;;4994340;28;20129;-78
2021/09/21 03:59:48;;;;;;;941.63;711.85;;;;;;;;;;4995351;28;20117;-78
2021/09/21 04:02:14;;;;;;;952.05;741.78;;;;;;;;;;4999498;28;20629;-77
2021/09/21 04:04:40;;;;;;;946.53;729.85;;;;;;;;;;5004999;28;20068;-78
2021/09/21 04:07:06;;;;;;;945.78;729.63;;;;;;;;;;5004264;28;20117;-78
2021/09/21 04:09:32;;;;;;;932.85;692.78;;;;;;;;;;5004137;28;20029;-78
2021/09/21 04:11:58;;;;;;;942.10;719.90;;;;;;;;;;5002591;28;20639;-78
2021/09/21 04:14:24;;;;;;;943.65;715.40;;;;;;;;;;5003850;28;20053;-78
2021/09/21 04:16:50;;;;;;;937.67;705.97;;;;;;;;;;5004268;28;20037;-77
2021/09/21 04:19:16;;;;;;;934.90;697.63;;;;;;;;;;5008557;28;20018;-78
2021/09/21 04:21:42;;;;;;;945.60;726.08;;;;;;;;;;5005562;28;20121;-78
2021/09/21 04:24:09;;;;;;;946.17;733.33;;;;;;;;;;4993947;28;20030;-78
2021/09/21 04:26:34;;;;;;;933.22;696.78;;;;;;;;;;5005358;28;20038;-78
2021/09/21 04:29:00;;;;;;;928.08;676.83;;;;;;;;;;5003725;28;20399;-79
2021/09/21 04:31:27;;;;;;;929.40;683.55;;;;;;;;;;5004166;28;20121;-79
2021/09/21 04:33:54;;;;;;;937.95;706.58;;;;;;;;;;5002576;28;20026;-78
2021/09/21 04:36:21;;;;;;;942.22;718.85;;;;;;;;;;5015470;28;20029;-79
2021/09/21 04:38:47;;;;;;;933.05;697.10;;;;;;;;;;5001735;28;20030;-78
2021/09/21 04:41:14;;;;;;;938.03;709.92;;;;;;;;;;5008725;28;20014;-79
2021/09/21 04:43:40;;;;;;;934.90;692.05;;;;;;;;;;5004461;28;20026;-79
2021/09/21 04:46:07;;;;;;;954.58;761.00;;;;;;;;;;5008816;28;20041;-78
2021/09/21 04:48:34;;;;;;;935.58;706.17;;;;;;;;;;5001625;28;20038;-78
2021/09/21 04:51:00;;;;;;;938.15;718.28;;;;;;;;;;5004108;28;20108;-78
2021/09/21 04:53:26;;;;;;;936.03;707.58;;;;;;;;;;5007109;28;20030;-78
2021/09/21 04:55:52;;;;;;;950.83;748.88;;;;;;;;;;5008858;28;20034;-78
2021/09/21 04:58:18;;;;;;;944.15;729.72;;;;;;;;;;5006471;28;20263;-78
2021/09/21 05:00:44;;;;;;;945.03;742.10;;;;;;;;;;5004495;28;20440;-79
2021/09/21 05:03:10;;;;;;;942.58;727.00;;;;;;;;;;5005619;28;20433;-78
2021/09/21 05:05:36;;;;;;;951.58;752.88;;;;;;;;;;5002310;28;20034;-78
2021/09/21 05:08:02;;;;;;;946.55;744.92;;;;;;;;;;5006353;28;20087;-78
2021/09/21 05:10:28;;;;;;;943.75;728.42;;;;;;;;;;5014975;28;20344;-78
2021/09/21 05:12:54;;;;;;;941.10;719.95;;;;;;;;;;5010112;28;20046;-78
2021/09/21 05:15:21;;;;;;;943.53;732.15;;;;;;;;;;5006619;28;20030;-78
2021/09/21 05:17:47;;;;;;;936.60;711.00;;;;;;;;;;5004880;28;20038;-78
2021/09/21 05:20:13;;;;;;;928.60;678.97;;;;;;;;;;5002694;28;20030;-79
2021/09/21 05:22:39;;;;;;;942.25;731.95;;;;;;;;;;5007090;28;20034;-78
2021/09/21 05:25:05;;;;;;;924.15;671.38;;;;;;;;;;5007680;28;20116;-79
2021/09/21 05:27:31;;;;;;;928.20;683.05;;;;;;;;;;5003394;28;20067;-78
2021/09/21 05:29:57;;;;;;;935.65;695.40;;;;;;;;;;5003610;28;20022;-79
2021/09/21 05:32:23;;;;;;;928.85;685.45;;;;;;;;;;5015865;28;20456;-78
2021/09/21 05:34:50;;;;;;;932.33;690.55;;;;;;;;;;5006775;28;20026;-78
2021/09/21 05:37:16;;;;;;;924.22;669.65;;;;;;;;;;4994973;28;20033;-78
2021/09/21 05:39:42;;;;;;;928.38;680.13;;;;;;;;;;5018638;28;20042;-78
2021/09/21 05:42:08;;;;;;;924.55;665.40;;;;;;;;;;5005866;28;20030;-77
2021/09/21 05:44:34;;;;;;;926.35;671.35;;;;;;;;;;5015952;28;20038;-78
2021/09/21 05:47:00;;;;;;;919.97;654.28;;;;;;;;;;5005172;28;20075;-79
2021/09/21 05:49:26;;;;;;;922.28;657.33;;;;;;;;;;5003514;28;20032;-79
2021/09/21 05:51:52;;;;;;;919.72;649.88;;;;;;;;;;5003363;28;20088;-78
2021/09/21 05:54:18;;;;;;;909.58;625.10;;;;;;;;;;5005813;28;20026;-78
2021/09/21 05:56:43;;;;;;;910.95;617.10;;;;;;;;;;4998395;28;20026;-79
2021/09/21 05:59:09;;;;;;;904.85;600.85;;;;;;;;;;5002178;28;20536;-79
2021/09/21 06:01:36;;;;;;;906.17;603.00;;;;;;;;;;5004912;28;20034;-78
2021/09/21 06:04:02;;;;;;;915.35;632.15;;;;;;;;;;5005905;28;20378;-79
2021/09/21 06:06:28;;;;;;;918.83;653.50;;;;;;;;;;5034374;28;20101;-78
2021/09/21 06:08:54;;;;;;;911.53;631.08;;;;;;;;;;5007074;28;20029;-78
2021/09/21 06:11:23;;;;;;;933.22;709.92;;;;;;;;;;4997813;28;20096;-78
2021/09/21 06:13:49;;;;;;;924.15;673.28;;;;;;;;;;5004563;28;20129;-78
2021/09/21 06:16:17;;;;;;;918.28;658.88;;;;;;;;;;5004439;28;20330;-78
2021/09/21 06:18:43;;;;;;;918.35;664.75;;;;;;;;;;5011895;28;20029;-78
2021/09/21 06:21:09;;;;;;;940.00;724.65;;;;;;;;;;5010551;28;20053;-78
2021/09/21 06:23:35;;;;;;;924.40;673.55;;;;;;;;;;4998740;28;20038;-78
2021/09/21 06:26:01;;;;;;;923.58;671.95;;;;;;;;;;5005092;28;20041;-78
2021/09/21 06:28:27;;;;;;;930.40;701.80;;;;;;;;;;4992240;28;20034;-77
2021/09/21 06:30:53;;;;;;;933.63;707.20;;;;;;;;;;4992271;28;20099;-78
2021/09/21 06:33:19;;;;;;;926.88;694.10;;;;;;;;;;5004042;28;20030;-78
2021/09/21 06:35:45;;;;;;;926.65;690.63;;;;;;;;;;5007009;28;20026;-78
2021/09/21 06:38:11;;;;;;;933.05;712.42;;;;;;;;;;5004545;28;20034;-79
2021/09/21 06:40:37;;;;;;;933.00;710.25;;;;;;;;;;4998510;28;20092;-78
2021/09/21 06:43:03;;;;;;;944.90;746.70;;;;;;;;;;4989499;28;20042;-79
2021/09/21 06:45:29;;;;;;;955.03;777.70;;;;;;;;;;4991189;28;20458;-78
2021/09/21 06:47:55;;;;;;;933.15;716.25;;;;;;;;;;4998819;28;20065;-78
2021/09/21 06:50:21;;;;;;;951.45;770.60;;;;;;;;;;4997023;28;20767;-78
2021/09/21 06:52:47;;;;;;;953.25;779.47;;;;;;;;;;5000286;28;20026;-78
2021/09/21 06:55:13;;;;;;;946.90;759.35;;;;;;;;;;5009201;28;20026;-78
2021/09/21 06:57:39;;;;;;;952.38;779.30;;;;;;;;;;4999616;28;20105;-79
2021/09/21 07:00:08;;;;;;;939.65;750.80;;;;;;;;;;4996259;28;20034;-78
2021/09/21 07:02:34;;;;;;;946.40;775.90;;;;;;;;;;5000450;28;20032;-79
2021/09/21 07:05:00;;;;;;;961.78;822.97;;;;;;;;;;5005991;28;20445;-78
2021/09/21 07:07:26;;;;;;;971.13;846.78;;;;;;;;;;5012181;28;20575;-79
2021/09/21 07:09:52;;;;;;;954.03;804.35;;;;;;;;;;5001920;28;20065;-78
2021/09/21 07:12:18;;;;;;;960.95;827.03;;;;;;;;;;5003938;28;20032;-79
2021/09/21 07:14:44;;;;;;;967.28;843.67;;;;;;;;;;5005186;28;20040;-78
2021/09/21 07:17:10;;;;;;;972.65;852.38;;;;;;;;;;4996521;28;20501;-78
2021/09/21 07:19:36;;;;;;;980.72;871.53;;;;;;;;;;4997343;28;20125;-78
2021/09/21 07:22:02;;;;;;;1000.30;890.67;;;;;;;;;;5002699;28;20029;-78
2021/09/21 07:24:29;;;;;;;997.92;888.55;;;;;;;;;;5007941;28;20095;-79
2021/09/21 07:26:55;;;;;;;1023.05;912.50;;;;;;;;;;5002172;28;20132;-78
2021/09/21 07:29:21;;;;;;;1006.58;897.40;;;;;;;;;;5002096;28;20526;-79
2021/09/21 07:31:48;;;;;;;1027.78;917.35;;;;;;;;;;4992276;28;20038;-78
2021/09/21 07:34:14;;;;;;;1036.75;925.58;;;;;;;;;;4997883;28;20171;-78
2021/09/21 07:36:40;;;;;;;1028.63;918.35;;;;;;;;;;4990962;28;20080;-77
2021/09/21 07:39:06;;;;;;;1051.40;939.85;;;;;;;;;;5003027;28;20471;-78
2021/09/21 07:41:32;;;;;;;1054.15;942.83;;;;;;;;;;5004847;28;20156;-78
2021/09/21 07:44:00;;;;;;;1046.68;936.00;;;;;;;;;;4994618;28;20497;-79
2021/09/21 07:46:26;;;;;;;1046.05;935.45;;;;;;;;;;4995365;28;20045;-78
2021/09/21 07:48:52;;;;;;;1063.95;952.10;;;;;;;;;;4998225;28;20034;-78
2021/09/21 07:51:18;;;;;;;1063.93;952.63;;;;;;;;;;4994635;28;20033;-78
2021/09/21 07:53:44;;;;;;;1072.32;960.30;;;;;;;;;;5000134;28;20031;-78
2021/09/21 07:56:10;;;;;;;1072.22;960.00;;;;;;;;;;4997019;28;20034;-78
2021/09/21 07:58:36;;;;;;;1070.82;959.20;;;;;;;;;;4997737;28;20504;-77
2021/09/21 08:01:02;;;;;;;1053.90;942.97;;;;;;;;;;4994409;28;20033;-78
2021/09/21 08:03:28;;;;;;;1084.65;972.03;;;;;;;;;;5008646;28;20548;-78
2021/09/21 08:05:54;;;;;;;1081.65;969.20;;;;;;;;;;5007146;28;20085;-78
2021/09/21 08:08:20;;;;;;;1089.25;976.90;;;;;;;;;;5000409;28;20442;-79
2021/09/21 08:10:46;;;;;;;1082.25;969.95;;;;;;;;;;5008174;28;20543;-78
2021/09/21 08:13:13;;;;;;;1097.13;984.13;;;;;;;;;;5000099;28;20155;-78
2021/09/21 08:15:39;;;;;;;1085.22;973.40;;;;;;;;;;5008490;28;20026;-78
2021/09/21 08:18:07;;;;;;;1083.90;971.83;;;;;;;;;;5007974;28;20089;-78
2021/09/21 08:20:38;;;;;;;1098.10;985.40;;;;;;;;;;5010874;28;20049;-78
2021/09/21 08:23:04;;;;;;;1094.85;982.35;;;;;;;;;;5011060;28;20704;-78
2021/09/21 08:25:30;;;;;;;1098.65;986.38;;;;;;;;;;5003527;28;20486;-78
2021/09/21 08:27:56;;;;;;;1102.70;990.00;;;;;;;;;;5002784;28;20116;-78
2021/09/21 08:30:22;;;;;;;1120.45;999.45;;;;;;;;;;5007804;28;20724;-77
2021/09/21 08:32:48;;;;;;;1111.10;996.60;;;;;;;;;;5007374;28;20018;-78
2021/09/21 08:35:14;;;;;;;1122.80;999.90;;;;;;;;;;5002061;28;20100;-79
2021/09/21 08:37:41;;;;;;;1129.20;999.90;;;;;;;;;;5005277;28;20026;-78
2021/09/21 08:40:07;;;;;;;1139.60;999.90;;;;;;;;;;5000404;28;20054;-76
2021/09/21 08:42:33;;;;;;;1139.47;999.90;;;;;;;;;;5022257;28;20022;-79
2021/09/21 08:44:59;;;;;;;1148.53;999.90;;;;;;;;;;5006678;28;20128;-77
2021/09/21 08:47:26;;;;;;;1144.90;999.90;;;;;;;;;;5005729;28;20160;-77
2021/09/21 08:49:52;;;;;;;1159.20;999.90;;;;;;;;;;5009504;28;20482;-77
2021/09/21 08:52:18;;;;;;;1157.85;999.90;;;;;;;;;;5011985;28;20014;-77
2021/09/21 08:54:44;;;;;;;1161.95;999.90;;;;;;;;;;5007165;28;20516;-78
2021/09/21 08:57:10;;;;;;;1166.28;999.90;;;;;;;;;;5004669;28;20474;-77
2021/09/21 08:59:37;;;;;;;1158.95;999.90;;;;;;;;;;4998538;28;20110;-78
2021/09/21 09:02:07;;;;;;;1166.30;999.90;;;;;;;;;;5007373;28;20030;-78
2021/09/21 09:04:33;;;;;;;;;;;;;;;;;;4998724;28;20543;-77
2021/09/21 09:06:59;;;;;;;1146.03;999.90;;;;;;;;;;4988255;28;19909;-77
2021/09/21 09:09:27;;;;;;;1156.57;999.90;;;;;;;;;;5004091;28;20557;-77
2021/09/21 09:11:54;;;;;;;1167.90;999.90;;;;;;;;;;5007494;28;20105;-78
2021/09/21 09:14:31;;;;;;;1171.75;999.90;;;;;;;;;;5006155;28;20061;-78
2021/09/21 09:16:58;;;;;;;1171.18;999.90;;;;;;;;;;5002571;28;20021;-77
2021/09/21 09:19:44;;;;;;;1175.78;999.90;;;;;;;;;;5006323;28;20026;-77
2021/09/21 09:22:14;;;;;;;1169.53;999.90;;;;;;;;;;5001017;28;20052;-77
2021/09/21 09:24:51;;;;;;;1173.60;999.90;;;;;;;;;;5004237;28;20638;-77
2021/09/21 09:27:22;;;;;;;1181.25;999.90;;;;;;;;;;5007430;28;20031;-78
2021/09/21 09:29:47;;;;;;;;;;;;;;;;;;5012756;28;20507;-77
2021/09/21 09:32:13;;;;;;;1157.30;999.90;;;;;;;;;;5001059;28;19917;-78
2021/09/21 09:34:41;;;;;;;1171.85;999.90;;;;;;;;;;5016128;28;20536;-77
2021/09/21 09:37:08;;;;;;;1184.20;999.90;;;;;;;;;;4996788;28;20026;-76
2021/09/21 09:39:41;;;;;;;1191.97;999.90;;;;;;;;;;5003228;28;20042;-76
2021/09/21 09:42:08;;;;;;;1200.00;999.90;;;;;;;;;;5001657;28;20034;-77
2021/09/21 09:44:35;;;;;;;1201.78;999.90;;;;;;;;;;5002477;28;20021;-77
2021/09/21 09:47:04;;;;;;;1213.30;999.90;;;;;;;;;;4998286;28;20532;-76
2021/09/21 09:49:31;;;;;;;1214.10;999.90;;;;;;;;;;5016387;28;21191;-76
2021/09/21 09:52:04;;;;;;;1214.68;999.90;;;;;;;;;;5001884;28;20030;-75
2021/09/21 09:54:31;;;;;;;1200.25;999.90;;;;;;;;;;5003382;28;20130;-77
2021/09/21 09:56:58;;;;;;;1205.35;999.90;;;;;;;;;;4996720;28;20041;-77
2021/09/21 09:59:25;;;;;;;1207.63;999.90;;;;;;;;;;4999803;28;20030;-77
2021/09/21 10:01:52;;;;;;;1205.22;999.90;;;;;;;;;;4998606;28;20091;-76
2021/09/21 10:04:18;;;;;;;1214.15;999.90;;;;;;;;;;5001382;28;20022;-76
2021/09/21 10:06:44;;;;;;;1208.85;999.90;;;;;;;;;;5002986;28;20101;-76
2021/09/21 10:09:10;;;;;;;1213.15;999.90;;;;;;;;;;4999691;28;20386;-76
2021/09/21 10:11:36;;;;;;;1201.25;999.90;;;;;;;;;;4998156;28;20030;-76
2021/09/21 10:14:04;;;;;;;1202.00;999.90;;;;;;;;;;5000712;28;20053;-76
2021/09/21 10:16:30;;;;;;;1208.15;999.90;;;;;;;;;;5019854;28;20103;-77
2021/09/21 10:18:58;;;;;;;1209.05;999.90;;;;;;;;;;4998295;28;20037;-76
2021/09/21 10:21:33;;;;;;;1207.07;999.90;;;;;;;;;;5002444;28;20140;-75
2021/09/21 10:24:03;;;;;;;1203.38;999.90;;;;;;;;;;4996033;28;20390;-76
2021/09/21 10:26:29;;;;;;;1199.43;999.90;;;;;;;;;;5000699;28;20077;-75
2021/09/21 10:28:59;;;;;;;1202.07;999.90;;;;;;;;;;4999920;28;20056;-75
2021/09/21 10:31:26;;;;;;;1199.05;999.90;;;;;;;;;;5000048;28;20041;-75
2021/09/21 10:33:52;;;;;;;1204.20;999.90;;;;;;;;;;4998634;28;20026;-75
2021/09/21 10:36:22;;;;;;;1204.75;999.90;;;;;;;;;;5000253;28;20030;-77
2021/09/21 10:38:59;;;;;;;1209.35;999.90;;;;;;;;;;5032010;28;20021;-75
2021/09/21 10:41:26;;;;;;;1205.63;999.90;;;;;;;;;;4999489;28;20472;-76
2021/09/21 10:44:00;;;;;;;1209.57;999.90;;;;;;;;;;4997353;28;20496;-76
2021/09/21 10:46:26;;;;;;;1206.25;999.90;;;;;;;;;;5001383;28;20378;-76
2021/09/21 10:48:52;;;;;;;1208.30;999.90;;;;;;;;;;4999469;28;20029;-75
2021/09/21 10:51:22;;;;;;;1217.05;999.90;;;;;;;;;;4999216;28;20513;-76
2021/09/21 10:53:58;;;;;;;1211.80;999.90;;;;;;;;;;4996764;28;20513;-76
2021/09/21 10:56:24;;;;;;;1209.68;999.90;;;;;;;;;;5007508;28;20354;-76
2021/09/21 10:58:58;;;;;;;1221.15;999.90;;;;;;;;;;5002167;28;20034;-76
2021/09/21 11:01:25;;;;;;;1217.68;999.90;;;;;;;;;;5004476;28;20386;-76
2021/09/21 11:03:51;;;;;;;1231.78;999.90;;;;;;;;;;5010076;28;20064;-75
2021/09/21 11:06:17;;;;;;;1222.63;999.90;;;;;;;;;;5007060;28;20104;-75
2021/09/21 11:08:44;;;;;;;1220.85;999.90;;;;;;;;;;5010233;28;20024;-75
2021/09/21 11:11:10;;;;;;;1228.35;999.90;;;;;;;;;;5008593;28;20022;-76
2021/09/21 11:13:37;;;;;;;1221.82;999.90;;;;;;;;;;5010098;28;20056;-74
2021/09/21 11:16:05;;;;;;;1222.30;999.90;;;;;;;;;;5008774;28;20030;-75
2021/09/21 11:18:32;;;;;;;1223.45;999.90;;;;;;;;;;5005879;28;20040;-76
2021/09/21 11:20:59;;;;;;;1225.80;999.90;;;;;;;;;;5005689;28;20030;-76
2021/09/21 11:23:26;;;;;;;1233.53;999.90;;;;;;;;;;5005709;28;20045;-76
2021/09/21 11:25:54;;;;;;;1227.18;999.90;;;;;;;;;;5000253;28;20022;-76
2021/09/21 11:28:20;;;;;;;1233.05;999.90;;;;;;;;;;5012691;28;20101;-75
2021/09/21 11:30:47;;;;;;;1238.07;999.90;;;;;;;;;;5003324;28;20121;-76
2021/09/21 11:33:17;;;;;;;1236.80;999.90;;;;;;;;;;5006977;28;20022;-76
2021/09/21 11:35:43;;;;;;;;;;;;;;;;;;5000972;28;20021;-75
2021/09/21 11:38:10;;;;;;;1215.10;999.90;;;;;;;;;;5006293;28;19909;-76
2021/09/21 11:40:37;;;;;;;1237.50;999.90;;;;;;;;;;5009158;28;20474;-75
2021/09/21 11:43:04;;;;;;;1244.25;999.90;;;;;;;;;;5006118;28;20030;-75
2021/09/21 11:45:30;;;;;;;1249.70;999.90;;;;;;;;;;5004849;28;20133;-76
2021/09/21 11:47:56;;;;;;;1254.43;999.90;;;;;;;;;;5005857;28;20026;-76
2021/09/21 11:50:33;;;;;;;1256.68;999.90;;;;;;;;;;5008514;28;20072;-75
2021/09/21 11:53:02;;;;;;;1257.13;999.90;;;;;;;;;;5007782;28;20060;-76
2021/09/21 11:55:30;;;;;;;1264.53;999.90;;;;;;;;;;5008294;28;20064;-76
2021/09/21 11:57:56;;;;;;;1270.82;999.90;;;;;;;;;;5007655;28;20044;-76
2021/09/21 12:00:27;;;;;;;1268.57;999.90;;;;;;;;;;5007294;28;20019;-76
2021/09/21 12:02:53;;;;;;;;;;;;;;;;;;5002840;28;20479;-76
2021/09/21 12:05:18;;;;;;;1244.90;999.90;;;;;;;;;;4995099;28;19924;-76
2021/09/21 12:07:45;;;;;;;1256.30;999.90;;;;;;;;;;5007029;28;20034;-76
2021/09/21 12:10:11;;;;;;;1251.18;999.90;;;;;;;;;;5004547;28;20024;-75
2021/09/21 12:12:37;;;;;;;1255.88;999.90;;;;;;;;;;4998549;28;20048;-76
2021/09/21 12:15:04;;;;;;;1256.30;999.90;;;;;;;;;;5003112;28;20050;-76
2021/09/21 12:17:30;;;;;;;1256.40;999.90;;;;;;;;;;5001909;28;20108;-76
2021/09/21 12:19:57;;;;;;;1256.82;999.90;;;;;;;;;;5008534;28;20091;-76
2021/09/21 12:22:23;;;;;;;1257.13;999.90;;;;;;;;;;5003715;28;20334;-76
2021/09/21 12:24:49;;;;;;;1255.00;999.90;;;;;;;;;;4999068;28;20041;-76
2021/09/21 12:27:16;;;;;;;1256.15;999.90;;;;;;;;;;5008258;28;20046;-75
2021/09/21 12:29:42;;;;;;;1253.35;999.90;;;;;;;;;;5003676;28;20021;-75
2021/09/21 12:32:08;;;;;;;1259.55;999.90;;;;;;;;;;5004252;28;20772;-75
2021/09/21 12:34:37;;;;;;;1262.57;999.90;;;;;;;;;;5003299;28;20026;-75
2021/09/21 12:37:03;;;;;;;1270.53;999.90;;;;;;;;;;5007326;28;20713;-76
2021/09/21 12:39:33;;;;;;;1269.35;999.90;;;;;;;;;;5008668;28;21364;-76
2021/09/21 12:41:59;;;;;;;;;;;;;;;;;;5008468;28;20509;-77
2021/09/21 12:44:25;;;;;;;1251.28;999.90;;;;;;;;;;5006984;28;19913;-75
2021/09/21 12:46:55;;;;;;;1265.80;999.90;;;;;;;;;;5004447;28;20049;-76
2021/09/21 12:49:21;;;;;;;1263.63;999.90;;;;;;;;;;5014148;28;20087;-75
2021/09/21 12:51:48;;;;;;;1267.45;999.90;;;;;;;;;;5003600;28;20075;-76
2021/09/21 12:54:19;;;;;;;1267.97;999.90;;;;;;;;;;5012481;28;20026;-76
2021/09/21 12:56:47;;;;;;;1269.13;999.90;;;;;;;;;;5007067;28;20052;-76
2021/09/21 12:59:14;;;;;;;1272.65;999.90;;;;;;;;;;5006567;28;20091;-75
2021/09/21 13:01:41;;;;;;;1271.13;999.90;;;;;;;;;;5002199;28;20208;-76
2021/09/21 13:04:08;;;;;;;1271.90;999.90;;;;;;;;;;5002647;28;20080;-76
2021/09/21 13:06:34;;;;;;;1274.25;999.90;;;;;;;;;;5008060;28;20477;-75
2021/09/21 13:09:00;;;;;;;1274.03;999.90;;;;;;;;;;5004001;28;20140;-76
2021/09/21 13:11:27;;;;;;;1277.22;999.90;;;;;;;;;;4994514;28;20126;-75
2021/09/21 13:13:53;;;;;;;1277.38;999.90;;;;;;;;;;4998824;28;20045;-76
2021/09/21 13:16:19;;;;;;;1279.60;999.90;;;;;;;;;;5004861;28;20585;-75
2021/09/21 13:18:47;;;;;;;1271.47;999.90;;;;;;;;;;5006589;28;20041;-75
2021/09/21 13:21:13;;;;;;;1278.28;999.90;;;;;;;;;;5005435;28;20033;-76
2021/09/21 13:23:39;;;;;;;1273.65;999.90;;;;;;;;;;5001963;28;20377;-75
2021/09/21 13:26:05;;;;;;;1270.65;999.90;;;;;;;;;;4994333;28;20040;-76
2021/09/21 13:28:31;;;;;;;1263.65;999.90;;;;;;;;;;5001393;28;20474;-75
2021/09/21 13:30:57;;;;;;;1267.35;999.90;;;;;;;;;;5001648;28;20025;-76
2021/09/21 13:33:23;;;;;;;1262.97;999.90;;;;;;;;;;5004935;28;20026;-76
2021/09/21 13:35:50;;;;;;;1267.18;999.90;;;;;;;;;;5005244;28;20026;-76
2021/09/21 13:38:16;;;;;;;1269.68;999.90;;;;;;;;;;5005186;28;20131;-76
2021/09/21 13:40:42;;;;;;;1276.70;999.90;;;;;;;;;;5011675;28;20065;-76
2021/09/21 13:43:08;;;;;;;1279.07;999.90;;;;;;;;;;5001703;28;20111;-76
2021/09/21 13:45:35;;;;;;;1271.22;999.90;;;;;;;;;;5004388;28;20512;-76
2021/09/21 13:48:01;;;;;;;1271.40;999.90;;;;;;;;;;4998334;28;20022;-76
2021/09/21 13:50:27;;;;;;;1277.95;999.90;;;;;;;;;;5004363;28;20493;-76
2021/09/21 13:52:53;;;;;;;1272.15;999.90;;;;;;;;;;5002491;28;20546;-76
2021/09/21 13:55:20;;;;;;;1271.65;999.90;;;;;;;;;;4996217;28;20113;-75